TimeCDT,TemperatureF,Dew PointF,Humidity,Sea Level PressureIn,VisibilityMPH,Wind Direction,Wind SpeedMPH,Gust SpeedMPH,PrecipitationIn,Events,Conditions,WindDirDegrees,DateUTC
12:15 AM,77.0,71.6,83,29.95,10.0,Calm,Calm,-,N/A,,Clear,0,2013-06-14 05:15:00
12:35 AM,75.2,71.6,89,29.93,10.0,SSW,4.6,-,N/A,,Clear,210,2013-06-14 05:35:00
12:55 AM,78.8,71.6,78,29.96,10.0,Calm,Calm,-,N/A,,Partly Cloudy,0,2013-06-14 05:55:00
1:15 AM,78.8,71.6,78,29.93,10.0,Calm,Calm,-,N/A,,Partly Cloudy,0,2013-06-14 06:15:00
1:35 AM,78.8,71.6,78,29.92,10.0,SW,3.5,-,N/A,,Scattered Clouds,230,2013-06-14 06:35:00
1:55 AM,78.8,71.6,78,29.95,10.0,Calm,Calm,-,N/A,Thunderstorm,Thunderstorm,0,2013-06-14 06:55:00
2:15 AM,77.0,71.6,83,29.97,7.0,North,13.8,19.6,0.23,Thunderstorm,Thunderstorm,360,2013-06-14 07:15:00
2:35 AM,73.4,71.6,94,29.94,3.0,WSW,4.6,19.6,0.90,Thunderstorm,Thunderstorm,250,2013-06-14 07:35:00
2:55 AM,73.4,71.6,94,29.93,9.0,West,4.6,-,0.94,Thunderstorm,Thunderstorm,260,2013-06-14 07:55:00
3:15 AM,73.4,71.6,94,29.91,10.0,WSW,8.1,-,0.01,Thunderstorm,Scattered Clouds,240,2013-06-14 08:15:00
3:35 AM,75.2,71.6,89,29.91,10.0,Calm,Calm,-,0.01,,Clear,0,2013-06-14 08:35:00
3:55 AM,75.2,71.6,89,29.89,10.0,NW,6.9,-,0.01,,Clear,320,2013-06-14 08:55:00
4:15 AM,75.2,71.6,89,29.91,10.0,WNW,4.6,-,N/A,,Clear,300,2013-06-14 09:15:00
4:35 AM,75.2,71.6,89,29.91,10.0,NW,5.8,-,N/A,,Clear,310,2013-06-14 09:35:00
4:55 AM,75.2,71.6,89,29.91,8.0,NNW,4.6,-,N/A,,Clear,330,2013-06-14 09:55:00
5:15 AM,75.2,71.6,89,29.92,6.0,Calm,Calm,-,N/A,,Clear,0,2013-06-14 10:15:00
5:35 AM,75.2,71.6,89,29.93,5.0,NW,3.5,-,N/A,,Clear,310,2013-06-14 10:35:00
5:55 AM,75.2,71.6,89,29.93,5.0,NNE,6.9,-,N/A,,Clear,30,2013-06-14 10:55:00
6:15 AM,75.2,71.6,89,29.94,7.0,NNE,4.6,-,N/A,,Clear,20,2013-06-14 11:15:00
6:35 AM,73.4,69.8,88,29.95,10.0,North,4.6,-,N/A,,Clear,10,2013-06-14 11:35:00
6:55 AM,73.4,69.8,88,29.95,10.0,North,6.9,-,N/A,,Clear,360,2013-06-14 11:55:00
7:15 AM,75.2,69.8,83,29.96,10.0,North,5.8,-,N/A,,Clear,360,2013-06-14 12:15:00
7:35 AM,75.2,69.8,83,29.97,10.0,North,6.9,-,N/A,,Clear,10,2013-06-14 12:35:00
7:55 AM,75.2,69.8,83,29.98,10.0,North,6.9,-,N/A,,Clear,350,2013-06-14 12:55:00
8:15 AM,77.0,69.8,78,29.98,10.0,NNE,9.2,-,N/A,,Clear,20,2013-06-14 13:15:00
8:35 AM,77.0,69.8,78,29.98,10.0,NNE,9.2,-,N/A,,Clear,30,2013-06-14 13:35:00
8:55 AM,78.8,69.8,74,29.98,10.0,North,11.5,-,N/A,,Clear,10,2013-06-14 13:55:00
9:15 AM,78.8,69.8,74,29.98,10.0,North,9.2,-,N/A,,Clear,10,2013-06-14 14:15:00
9:35 AM,80.6,69.8,70,29.98,10.0,North,8.1,-,N/A,,Clear,350,2013-06-14 14:35:00
9:55 AM,80.6,69.8,70,29.97,10.0,North,10.4,-,N/A,,Clear,360,2013-06-14 14:55:00
10:15 AM,82.4,69.8,66,29.97,10.0,North,11.5,-,N/A,,Clear,360,2013-06-14 15:15:00
10:35 AM,82.4,69.8,66,29.97,10.0,North,12.7,-,N/A,,Clear,10,2013-06-14 15:35:00
10:55 AM,82.4,69.8,66,29.97,10.0,North,12.7,16.1,N/A,,Clear,360,2013-06-14 15:55:00
11:15 AM,84.2,69.8,62,29.97,10.0,North,10.4,17.3,N/A,,Clear,360,2013-06-14 16:15:00
11:35 AM,84.2,69.8,62,29.97,10.0,North,9.2,-,N/A,,Clear,350,2013-06-14 16:35:00
11:55 AM,84.2,71.6,66,29.97,10.0,North,9.2,-,N/A,,Clear,360,2013-06-14 16:55:00
12:15 PM,86.0,69.8,58,29.96,10.0,NNW,9.2,-,N/A,,Clear,340,2013-06-14 17:15:00
12:35 PM,86.0,69.8,58,29.96,10.0,North,10.4,16.1,N/A,,Clear,10,2013-06-14 17:35:00
12:55 PM,87.8,69.8,55,29.96,10.0,NNE,13.8,-,N/A,,Clear,30,2013-06-14 17:55:00
1:15 PM,87.8,69.8,55,29.96,10.0,North,11.5,17.3,N/A,,Clear,350,2013-06-14 18:15:00
1:35 PM,87.8,69.8,55,29.96,10.0,North,11.5,16.1,N/A,,Clear,360,2013-06-14 18:35:00
1:55 PM,87.8,69.8,55,29.95,10.0,NNE,12.7,16.1,N/A,,Clear,20,2013-06-14 18:55:00
2:15 PM,87.8,69.8,55,29.94,10.0,NNE,9.2,16.1,N/A,,Clear,20,2013-06-14 19:15:00
2:35 PM,87.8,69.8,55,29.94,10.0,NNE,11.5,-,N/A,,Clear,20,2013-06-14 19:35:00
2:55 PM,87.8,66.2,49,29.94,10.0,North,12.7,-,N/A,,Clear,360,2013-06-14 19:55:00
3:15 PM,87.8,68.0,52,29.94,10.0,North,10.4,-,N/A,,Clear,350,2013-06-14 20:15:00
3:35 PM,89.6,68.0,49,29.94,10.0,NNE,6.9,-,N/A,,Partly Cloudy,20,2013-06-14 20:35:00
3:55 PM,89.6,68.0,49,29.94,10.0,NNE,10.4,-,N/A,,Scattered Clouds,20,2013-06-14 20:55:00
4:15 PM,87.8,66.2,49,29.94,10.0,North,9.2,-,N/A,,Partly Cloudy,350,2013-06-14 21:15:00
4:35 PM,87.8,66.2,49,29.94,10.0,North,10.4,-,N/A,,Clear,350,2013-06-14 21:35:00
4:55 PM,87.8,64.4,46,29.94,10.0,NE,9.2,-,N/A,,Clear,40,2013-06-14 21:55:00
5:15 PM,87.8,66.2,49,29.94,10.0,North,10.4,-,N/A,,Clear,360,2013-06-14 22:15:00
5:35 PM,87.8,64.4,46,29.94,10.0,NNE,10.4,-,N/A,,Clear,30,2013-06-14 22:35:00
5:55 PM,86.0,64.4,48,29.93,10.0,NNE,12.7,-,N/A,,Clear,20,2013-06-14 22:55:00
6:15 PM,86.0,64.4,48,29.93,10.0,North,8.1,-,N/A,,Clear,10,2013-06-14 23:15:00
6:35 PM,84.2,64.4,51,29.93,10.0,NNE,8.1,-,N/A,,Clear,20,2013-06-14 23:35:00
6:55 PM,84.2,64.4,51,29.94,10.0,NNE,8.1,-,N/A,,Clear,20,2013-06-14 23:55:00
7:15 PM,82.4,62.6,51,29.95,10.0,NNE,5.8,-,N/A,,Clear,20,2013-06-15 00:15:00
7:35 PM,80.6,64.4,58,29.95,10.0,North,5.8,-,N/A,,Clear,10,2013-06-15 00:35:00
7:55 PM,78.8,64.4,61,29.96,10.0,North,6.9,-,N/A,,Clear,10,2013-06-15 00:55:00
8:15 PM,77.0,64.4,65,29.96,10.0,NNE,4.6,-,N/A,,Clear,20,2013-06-15 01:15:00
8:35 PM,75.2,64.4,69,29.96,10.0,North,3.5,-,N/A,,Clear,10,2013-06-15 01:35:00
8:55 PM,73.4,66.2,78,29.96,10.0,NNE,4.6,-,N/A,,Clear,20,2013-06-15 01:55:00
9:15 PM,73.4,64.4,73,29.97,10.0,NNE,5.8,-,N/A,,Clear,20,2013-06-15 02:15:00
9:35 PM,73.4,64.4,73,29.98,10.0,North,5.8,-,N/A,,Clear,10,2013-06-15 02:35:00
9:55 PM,71.6,62.6,73,29.98,10.0,NNE,4.6,-,N/A,,Clear,20,2013-06-15 02:55:00
10:15 PM,71.6,64.4,78,29.99,10.0,Calm,Calm,-,N/A,,Clear,0,2013-06-15 03:15:00
10:35 PM,69.8,64.4,83,30.00,10.0,Calm,Calm,-,N/A,,Clear,0,2013-06-15 03:35:00
10:55 PM,69.8,64.4,83,30.00,10.0,Calm,Calm,-,N/A,,Clear,0,2013-06-15 03:55:00
11:15 PM,68.0,62.6,83,29.99,10.0,Calm,Calm,-,N/A,,Clear,0,2013-06-15 04:15:00
11:35 PM,69.8,62.6,78,29.98,10.0,NNE,3.5,-,N/A,,Clear,30,2013-06-15 04:35:00
11:55 PM,69.8,62.6,78,29.98,10.0,Calm,Calm,-,N/A,,Clear,0,2013-06-15 04:55:00